Aérodrome :
LOGIN :

S'inscrire | Disclaimer

   EN    FR    IT 

 










Légende :    VFR   VFR Marginal   IFR   IFR Intensif   IFR Très Intensif
Visi : 
Plafond : 
>= 8 km
>= 3000ft
5 à 8 km
1000 à 3000 ft
1500m à 5 km
500 à 1000 ft
800 à 1500m
200 à 500 ft
< 800m
< 200 ft
Symboles :   Orages  Brouillard  Fortes neiges  Fortes précipitations  Vent > 20 kt
SIGMETs :   Divers  Orages  Givrage  Turbulence  Onde Orograph.  Cendres Volcan.






- Altitude de l'aérodrome : 287 ft


LFRL - Lanveoc Poulmic

DERNIER METAR :
  • 261300Z AUTO 20013KT 9999 BKN013 BKN020 OVC036 20/17 Q1015

METARs EXPIRÉS :
  • 261230Z AUTO 21011KT 9999 OVC012 19/17 Q1015
  • 261200Z AUTO 22013KT 190V250 9999 SCT012 BKN022 BKN028 19/16 Q1015
  • 261130Z AUTO 22012KT 9999 SCT015 OVC027 19/16 Q1015
  • 261100Z AUTO 22013KT 9999 BKN016 BKN021 OVC028 19/15 Q1015
  • 261030Z AUTO 22011KT 180V250 9999 BKN016 19/16 Q1015
  • 261000Z AUTO 22011KT 9999 BKN010 BKN014 BKN019 19/16 Q1014

Prévision TAF périmée.



MET'MAP, la Météo Aéronautique d'un coup d'oeil ! - Copyright ORBIFLY Décembre 2007 - Disclaimer

ORBIFLY MET'MAP TEAM :

Programmation & Développement : Alexandra Zaïnal
Sur une idée originale de : Baudouin d'Aumeries
Assistance à la programmation : Marc-Olivier Méhu
Soutien technique & logistique : Manuel Goepfert

Contact : metmap@orbifly.com




SOURCES & CREDITS :

   NOAA